Walum, North Dakota
Current Conditions -  °F | °C
As of 3:55 AM on Saturday 25 Oct 2014 (Local Time) from KBAC Reporting Station
Clear Clear  
Wind Chill: 36°   Ceiling: Unl
Heat Index: 43°   Visibility: 10mi
Dew Point: 32°   Wind: 14mph
Humidity: 66%   Direction: 300°WNW
Pressure: 30.04"   Gusts: NA
Location:  47.2843°N, 98.1073°W
Report Text: KBAC 250855Z AUTO 30012KT 10SM CLR 06/00 A3004 RMK AO2
Loading
Personal Weather Stations






























Interactive Weather Map
Tropical Storm Tracking
New forecast layout! Learn more

10-Day Weather Forecast

Advertisements
Track Severe Weather on mobile